Time;durP1;ratioP1;P1;durP2;ratioP2;P2;SDS_P1;SDS_P2;PMS_P1;PMS_P2;Temp;Humidity;BMP_temperature;BMP_pressure;BME280_temperature;BME280_humidity;BME280_pressure;Samples;Min_cycle;Max_cycle;Signal;HPM_P1;HPM_P2
2023/07/28 00:01:39;;;;;;;;;;;;;;;;;;5006687;28;19921;-61
2023/07/28 00:04:07;;;;;;;;;;;;;;;;;;5005874;28;19932;-62
2023/07/28 00:06:33;;;;;;;;;;;;;;;;;;5003595;28;20004;-61
2023/07/28 00:08:58;;;;;;;;;;;;;;;;;;5006956;28;20048;-61
2023/07/28 00:11:24;;;;;;;;;;;;;;;;;;5008748;28;20330;-61
2023/07/28 00:13:50;;;;;;;;;;;;;;;;;;5008820;28;20020;-62
2023/07/28 00:16:16;;;;;;;;;;;;;;;;;;5023366;28;19928;-62
2023/07/28 00:18:42;;;;;;;;;;;;;;;;;;4987353;28;20623;-61
2023/07/28 00:21:08;;;;;;;;;;;;;;;;;;5009731;28;19933;-61
2023/07/28 00:23:34;;;;;;;;;;;;;;;;;;4990676;28;20574;-61
2023/07/28 00:26:00;;;;;;;;;;;;;;;;;;5011601;28;20375;-61
2023/07/28 00:28:26;;;;;;;;;;;;;;;;;;5009672;28;20015;-61
2023/07/28 00:30:51;;;;;;;;;;;;;;;;;;5000984;28;20490;-61
2023/07/28 00:33:17;;;;;;;;;;;;;;;;;;5011399;28;20355;-61
2023/07/28 00:35:43;;;;;;;;;;;;;;;;;;5009071;28;19921;-61
2023/07/28 00:38:09;;;;;;;;;;;;;;;;;;5009432;28;19927;-61
2023/07/28 00:40:35;;;;;;;;;;;;;;;;;;5009639;28;19925;-61
2023/07/28 00:43:01;;;;;;;;;;;;;;;;;;5002948;28;19926;-61
2023/07/28 00:45:27;;;;;;;;;;;;;;;;;;5006475;28;20485;-61
2023/07/28 00:47:53;;;;;;;;;;;;;;;;;;5012399;28;19921;-62
2023/07/28 00:50:19;;;;;;;;;;;;;;;;;;5013431;28;20294;-62
2023/07/28 00:52:46;;;;;;;;;;;;;;;;;;5012353;28;20000;-61
2023/07/28 00:55:12;;;;;;;;;;;;;;;;;;5011548;28;19925;-61
2023/07/28 00:57:39;;;;;;;;;;;;;;;;;;5013641;28;20359;-61
2023/07/28 01:00:05;;;;;;;;;;;;;;;;;;5013449;28;20264;-61
2023/07/28 01:02:31;;;;;;;;;;;;;;;;;;5011453;28;19957;-61
2023/07/28 01:04:57;;;;;;;;;;;;;;;;;;5011372;28;19972;-62
2023/07/28 01:07:23;;;;;;;;;;;;;;;;;;5012923;28;20372;-61
2023/07/28 01:09:49;;;;;;;;;;;;;;;;;;5012179;28;19932;-61
2023/07/28 01:12:15;;;;;;;;;;;;;;;;;;4995091;28;19960;-61
2023/07/28 01:14:40;;;;;;;;;;;;;;;;;;5011471;28;19921;-61
2023/07/28 01:17:06;;;;;;;;;;;;;;;;;;5010276;28;19933;-61
2023/07/28 01:19:32;;;;;;;;;;;;;;;;;;5009872;28;20439;-61
2023/07/28 01:21:58;;;;;;;;;;;;;;;;;;5012147;28;19936;-62
2023/07/28 01:24:24;;;;;;;;;;;;;;;;;;5010980;28;20323;-61
2023/07/28 01:26:51;;;;;;;;;;;;;;;;;;5013624;28;19976;-61
2023/07/28 01:29:17;;;;;;;;;;;;;;;;;;5006508;28;19929;-61
2023/07/28 01:31:42;;;;;;;;;;;;;;;;;;5005763;28;20340;-61
2023/07/28 01:34:08;;;;;;;;;;;;;;;;;;5012184;28;19929;-61
2023/07/28 01:36:34;;;;;;;;;;;;;;;;;;5008109;28;20447;-61
2023/07/28 01:39:00;;;;;;;;;;;;;;;;;;4999537;28;19976;-61
2023/07/28 01:41:26;;;;;;;;;;;;;;;;;;4995177;28;19921;-61
2023/07/28 01:43:55;;;;;;;;;;;;;;;;;;4996887;28;19957;-61
2023/07/28 01:46:21;;;;;;;;;;;;;;;;;;4994230;28;19922;-61
2023/07/28 01:48:47;;;;;;;;;;;;;;;;;;5012026;28;20434;-61
2023/07/28 01:51:13;;;;;;;;;;;;;;;;;;5010371;28;19929;-61
2023/07/28 01:53:39;;;;;;;;;;;;;;;;;;5012269;28;19922;-61
2023/07/28 01:56:04;;;;;;;;;;;;;;;;;;5010590;28;20370;-61
2023/07/28 01:58:30;;;;;;;;;;;;;;;;;;5009288;28;19925;-61
2023/07/28 02:00:56;;;;;;;;;;;;;;;;;;5011147;28;19922;-61
2023/07/28 02:03:22;;;;;;;;;;;;;;;;;;5006987;28;19952;-62
2023/07/28 02:05:48;;;;;;;;;;;;;;;;;;5007865;28;19921;-61
2023/07/28 02:08:14;;;;;;;;;;;;;;;;;;5011217;28;19925;-61
2023/07/28 02:10:40;;;;;;;;;;;;;;;;;;4992618;28;19921;-62
2023/07/28 02:13:06;;;;;;;;;;;;;;;;;;5008449;28;19928;-61
2023/07/28 02:15:32;;;;;;;;;;;;;;;;;;5006130;28;20627;-61
2023/07/28 02:17:58;;;;;;;;;;;;;;;;;;5007901;28;19926;-61
2023/07/28 02:20:23;;;;;;;;;;;;;;;;;;5009715;28;20375;-61
2023/07/28 02:22:49;;;;;;;;;;;;;;;;;;5003101;28;19925;-61
2023/07/28 02:25:15;;;;;;;;;;;;;;;;;;5008929;28;20260;-61
2023/07/28 02:27:41;;;;;;;;;;;;;;;;;;5009791;28;19953;-61
2023/07/28 02:30:07;;;;;;;;;;;;;;;;;;5008855;28;19930;-62
2023/07/28 02:32:33;;;;;;;;;;;;;;;;;;5010490;28;19976;-62
2023/07/28 02:34:59;;;;;;;;;;;;;;;;;;5007736;28;20654;-61
2023/07/28 02:37:25;;;;;;;;;;;;;;;;;;5009072;28;20013;-61
2023/07/28 02:39:51;;;;;;;;;;;;;;;;;;5010237;28;19929;-61
2023/07/28 02:42:17;;;;;;;;;;;;;;;;;;5007941;28;19961;-62
2023/07/28 02:44:43;;;;;;;;;;;;;;;;;;5010222;28;19927;-61
2023/07/28 02:47:09;;;;;;;;;;;;;;;;;;5009819;28;20470;-61
2023/07/28 02:49:34;;;;;;;;;;;;;;;;;;5009380;28;19925;-61
2023/07/28 02:52:02;;;;;;;;;;;;;;;;;;5010819;28;19921;-61
2023/07/28 02:54:28;;;;;;;;;;;;;;;;;;5008327;28;19932;-61
2023/07/28 02:56:54;;;;;;;;;;;;;;;;;;5009020;28;19921;-62
2023/07/28 02:59:20;;;;;;;;;;;;;;;;;;4990133;28;19956;-61
2023/07/28 03:01:46;;;;;;;;;;;;;;;;;;5006944;28;19949;-61
2023/07/28 03:04:12;;;;;;;;;;;;;;;;;;5007291;28;19926;-61
2023/07/28 03:06:38;;;;;;;;;;;;;;;;;;5008603;28;19921;-61
2023/07/28 03:09:04;;;;;;;;;;;;;;;;;;5010910;28;19947;-61
2023/07/28 03:11:29;;;;;;;;;;;;;;;;;;5006550;28;19922;-61
2023/07/28 03:13:55;;;;;;;;;;;;;;;;;;5009840;28;19971;-61
2023/07/28 03:16:21;;;;;;;;;;;;;;;;;;5004394;28;19921;-62
2023/07/28 03:18:47;;;;;;;;;;;;;;;;;;5025493;28;19936;-62
2023/07/28 03:21:13;;;;;;;;;;;;;;;;;;5009575;28;19925;-61
2023/07/28 03:23:39;;;;;;;;;;;;;;;;;;4991873;28;19936;-61
2023/07/28 03:26:05;;;;;;;;;;;;;;;;;;5012061;28;19921;-61
2023/07/28 03:28:31;;;;;;;;;;;;;;;;;;5011346;28;19991;-61
2023/07/28 03:30:57;;;;;;;;;;;;;;;;;;5010500;28;20080;-61
2023/07/28 03:33:22;;;;;;;;;;;;;;;;;;5008276;28;20268;-61
2023/07/28 03:35:48;;;;;;;;;;;;;;;;;;4993806;28;19928;-61
2023/07/28 03:38:14;;;;;;;;;;;;;;;;;;5040210;23;19929;-68
2023/07/28 03:40:40;;;;;;;;;;;;;;;;;;5045876;28;20050;-68
2023/07/28 03:43:06;;;;;;;;;;;;;;;;;;5032742;28;19921;-69
2023/07/28 03:45:32;;;;;;;;;;;;;;;;;;5044232;28;19926;-68
2023/07/28 03:47:58;;;;;;;;;;;;;;;;;;5048141;28;19928;-68
2023/07/28 03:50:26;;;;;;;;;;;;;;;;;;5050277;28;19932;-68
2023/07/28 03:52:52;;;;;;;;;;;;;;;;;;5042984;28;19928;-68
2023/07/28 03:55:17;;;;;;;;;;;;;;;;;;5046064;28;19990;-68
2023/07/28 03:57:44;;;;;;;;;;;;;;;;;;5049924;28;19925;-68
2023/07/28 04:00:09;;;;;;;;;;;;;;;;;;5030945;28;19921;-68
2023/07/28 04:02:35;;;;;;;;;;;;;;;;;;5047287;28;19947;-68
2023/07/28 04:05:01;;;;;;;;;;;;;;;;;;5047222;28;19982;-68
2023/07/28 04:07:27;;;;;;;;;;;;;;;;;;5042189;28;20338;-68
2023/07/28 04:09:53;;;;;;;;;;;;;;;;;;5017396;28;20363;-69
2023/07/28 04:12:19;;;;;;;;;;;;;;;;;;5045222;28;19931;-69
2023/07/28 04:14:45;;;;;;;;;;;;;;;;;;5043907;28;19921;-68
2023/07/28 04:17:11;;;;;;;;;;;;;;;;;;5029428;28;19948;-68
2023/07/28 04:19:37;;;;;;;;;;;;;;;;;;5042107;28;19924;-68
2023/07/28 04:22:03;;;;;;;;;;;;;;;;;;5045426;28;19932;-68
2023/07/28 04:24:29;;;;;;;;;;;;;;;;;;5048289;28;19968;-68
2023/07/28 04:26:55;;;;;;;;;;;;;;;;;;5040520;28;20681;-68
2023/07/28 04:29:21;;;;;;;;;;;;;;;;;;5042985;28;19931;-68
2023/07/28 04:31:47;;;;;;;;;;;;;;;;;;5042133;28;19925;-68
2023/07/28 04:34:13;;;;;;;;;;;;;;;;;;5036057;28;19971;-68
2023/07/28 04:36:38;;;;;;;;;;;;;;;;;;5050738;28;19932;-67
2023/07/28 04:39:04;;;;;;;;;;;;;;;;;;5051434;28;19929;-67
2023/07/28 04:41:30;;;;;;;;;;;;;;;;;;5033319;28;19925;-68
2023/07/28 04:43:56;;;;;;;;;;;;;;;;;;5044363;28;19921;-68
2023/07/28 04:46:22;;;;;;;;;;;;;;;;;;5021475;28;19933;-68
2023/07/28 04:48:48;;;;;;;;;;;;;;;;;;5045242;28;20022;-68
2023/07/28 04:51:14;;;;;;;;;;;;;;;;;;5052695;28;20011;-68
2023/07/28 04:53:40;;;;;;;;;;;;;;;;;;5035423;28;19997;-68
2023/07/28 04:56:06;;;;;;;;;;;;;;;;;;5031550;28;19920;-68
2023/07/28 04:58:32;;;;;;;;;;;;;;;;;;5052317;28;19928;-68
2023/07/28 05:00:58;;;;;;;;;;;;;;;;;;5044161;28;19928;-68
2023/07/28 05:03:23;;;;;;;;;;;;;;;;;;5046112;28;20271;-68
2023/07/28 05:05:49;;;;;;;;;;;;;;;;;;5046170;28;19925;-67
2023/07/28 05:08:15;;;;;;;;;;;;;;;;;;5049017;28;19924;-68
2023/07/28 05:10:42;;;;;;;;;;;;;;;;;;5051938;28;20310;-68
2023/07/28 05:13:08;;;;;;;;;;;;;;;;;;5036271;28;20037;-68
2023/07/28 05:15:34;;;;;;;;;;;;;;;;;;5054188;28;20381;-68
2023/07/28 05:18:00;;;;;;;;;;;;;;;;;;5039998;28;19928;-68
2023/07/28 05:20:26;;;;;;;;;;;;;;;;;;5047978;28;19920;-68
2023/07/28 05:22:52;;;;;;;;;;;;;;;;;;5046499;28;19921;-68
2023/07/28 05:25:18;;;;;;;;;;;;;;;;;;5047151;28;20489;-68
2023/07/28 05:27:44;;;;;;;;;;;;;;;;;;5046164;28;20535;-68
2023/07/28 05:30:10;;;;;;;;;;;;;;;;;;5053662;28;19921;-68
2023/07/28 05:32:35;;;;;;;;;;;;;;;;;;5054024;28;19920;-68
2023/07/28 05:35:01;;;;;;;;;;;;;;;;;;5050480;28;19928;-68
2023/07/28 05:37:27;;;;;;;;;;;;;;;;;;5040968;28;19963;-68
2023/07/28 05:39:53;;;;;;;;;;;;;;;;;;5051377;28;20016;-68
2023/07/28 05:42:19;;;;;;;;;;;;;;;;;;5053537;28;19921;-68
2023/07/28 05:44:45;;;;;;;;;;;;;;;;;;5053125;28;19936;-68
2023/07/28 05:47:11;;;;;;;;;;;;;;;;;;5053888;28;19924;-68
2023/07/28 05:49:37;;;;;;;;;;;;;;;;;;5051407;28;20546;-68
2023/07/28 05:52:03;;;;;;;;;;;;;;;;;;5032032;28;19960;-68
2023/07/28 05:54:28;;;;;;;;;;;;;;;;;;5042492;28;20392;-68
2023/07/28 05:56:54;;;;;;;;;;;;;;;;;;5033005;28;19921;-68
2023/07/28 05:59:21;;;;;;;;;;;;;;;;;;5048899;28;19938;-68
2023/07/28 06:01:47;;;;;;;;;;;;;;;;;;5051133;28;19968;-68
2023/07/28 06:04:13;;;;;;;;;;;;;;;;;;5050266;28;19990;-68
2023/07/28 06:06:38;;;;;;;;;;;;;;;;;;5052607;28;19924;-68
2023/07/28 06:09:04;;;;;;;;;;;;;;;;;;5031635;28;19927;-68
2023/07/28 06:11:30;;;;;;;;;;;;;;;;;;5050212;28;20623;-68
2023/07/28 06:13:57;;;;;;;;;;;;;;;;;;5048673;28;19932;-68
2023/07/28 06:16:24;;;;;;;;;;;;;;;;;;5051843;28;19921;-68
2023/07/28 06:18:50;;;;;;;;;;;;;;;;;;5048203;28;20056;-67
2023/07/28 06:21:16;;;;;;;;;;;;;;;;;;5031472;28;19921;-68
2023/07/28 06:23:42;;;;;;;;;;;;;;;;;;5030602;28;19936;-68
2023/07/28 06:26:07;;;;;;;;;;;;;;;;;;5049289;28;19929;-68
2023/07/28 06:28:33;;;;;;;;;;;;;;;;;;5031369;28;19932;-68
2023/07/28 06:31:00;;;;;;;;;;;;;;;;;;5047668;28;19925;-68
2023/07/28 06:33:25;;;;;;;;;;;;;;;;;;5045727;28;19921;-68
2023/07/28 06:35:52;;;;;;;;;;;;;;;;;;5030967;28;20061;-68
2023/07/28 06:38:18;;;;;;;;;;;;;;;;;;5038639;28;19921;-68
2023/07/28 06:40:44;;;;;;;;;;;;;;;;;;5046490;28;19925;-68
2023/07/28 06:43:10;;;;;;;;;;;;;;;;;;5048190;28;20023;-68
2023/07/28 06:45:36;;;;;;;;;;;;;;;;;;5048118;28;19932;-68
2023/07/28 06:48:02;;;;;;;;;;;;;;;;;;5052649;28;19921;-68
2023/07/28 06:50:28;;;;;;;;;;;;;;;;;;5051138;28;19979;-69
2023/07/28 06:52:54;;;;;;;;;;;;;;;;;;5049361;28;19924;-68
2023/07/28 06:55:21;;;;;;;;;;;;;;;;;;5037651;28;19996;-69
2023/07/28 06:57:47;;;;;;;;;;;;;;;;;;5040965;28;19947;-68
2023/07/28 07:00:13;;;;;;;;;;;;;;;;;;5032245;28;20031;-68
2023/07/28 07:02:39;;;;;;;;;;;;;;;;;;5047408;28;19924;-68
2023/07/28 07:05:05;;;;;;;;;;;;;;;;;;5046666;28;19925;-69
2023/07/28 07:07:32;;;;;;;;;;;;;;;;;;5050802;28;19925;-68
2023/07/28 07:09:57;;;;;;;;;;;;;;;;;;5044624;28;19932;-68
2023/07/28 07:12:23;;;;;;;;;;;;;;;;;;5040736;28;19925;-69
2023/07/28 07:14:49;;;;;;;;;;;;;;;;;;5037124;28;19925;-68
2023/07/28 07:17:15;;;;;;;;;;;;;;;;;;5049836;28;20023;-68
2023/07/28 07:19:41;;;;;;;;;;;;;;;;;;5045098;28;19921;-68
2023/07/28 07:22:07;;;;;;;;;;;;;;;;;;5046794;28;19921;-68
2023/07/28 07:24:33;;;;;;;;;;;;;;;;;;5033774;28;20360;-68
2023/07/28 07:26:59;;;;;;;;;;;;;;;;;;5056379;28;19921;-67
2023/07/28 07:29:25;;;;;;;;;;;;;;;;;;5032116;28;19960;-67
2023/07/28 07:31:54;;;;;;;;;;;;;;;;;;5051507;28;19970;-67
2023/07/28 07:34:20;;;;;;;;;;;;;;;;;;5034125;28;19921;-67
2023/07/28 07:36:46;;;;;;;;;;;;;;;;;;5050968;28;19978;-67
2023/07/28 07:39:12;;;;;;;;;;;;;;;;;;5043285;28;20506;-67
2023/07/28 07:41:38;;;;;;;;;;;;;;;;;;5047614;28;19935;-67
2023/07/28 07:44:04;;;;;;;;;;;;;;;;;;5025126;28;19999;-68
2023/07/28 07:46:29;;;;;;;;;;;;;;;;;;5039657;28;19932;-67
2023/07/28 07:48:55;;;;;;;;;;;;;;;;;;5008701;28;20397;-67
2023/07/28 07:51:21;;;;;;;;;;;;;;;;;;5047593;28;20011;-67
2023/07/28 07:53:47;;;;;;;;;;;;;;;;;;5044934;28;20509;-67
2023/07/28 07:56:13;;;;;;;;;;;;;;;;;;5036568;28;19922;-67
2023/07/28 07:58:39;;;;;;;;;;;;;;;;;;5038751;28;20011;-67
2023/07/28 08:01:05;;;;;;;;;;;;;;;;;;5048206;28;19929;-67
2023/07/28 08:03:31;;;;;;;;;;;;;;;;;;5037435;28;19987;-67
2023/07/28 08:05:57;;;;;;;;;;;;;;;;;;5049740;28;20011;-67
2023/07/28 08:08:23;;;;;;;;;;;;;;;;;;5040844;28;19929;-67
2023/07/28 08:10:49;;;;;;;;;;;;;;;;;;5029637;28;19966;-67
2023/07/28 08:13:15;;;;;;;;;;;;;;;;;;5054116;28;20274;-67
2023/07/28 08:15:41;;;;;;;;;;;;;;;;;;5052800;28;19921;-67
2023/07/28 08:18:07;;;;;;;;;;;;;;;;;;5053860;28;19932;-67
2023/07/28 08:20:33;;;;;;;;;;;;;;;;;;5048166;28;19928;-67
2023/07/28 08:22:59;;;;;;;;;;;;;;;;;;5054560;28;19920;-67
2023/07/28 08:25:25;;;;;;;;;;;;;;;;;;5046513;28;19936;-67
2023/07/28 08:27:50;;;;;;;;;;;;;;;;;;5010936;28;19940;-67
2023/07/28 08:30:16;;;;;;;;;;;;;;;;;;5046333;28;20021;-67
2023/07/28 08:32:42;;;;;;;;;;;;;;;;;;5052811;28;19928;-67
2023/07/28 08:35:08;;;;;;;;;;;;;;;;;;5049409;28;20286;-68
2023/07/28 08:37:34;;;;;;;;;;;;;;;;;;5019624;28;20046;-67
2023/07/28 08:40:00;;;;;;;;;;;;;;;;;;5049524;28;19929;-67
2023/07/28 08:42:26;;;;;;;;;;;;;;;;;;5051172;28;19921;-67
2023/07/28 08:44:52;;;;;;;;;;;;;;;;;;5034386;28;19929;-67
2023/07/28 08:47:18;;;;;;;;;;;;;;;;;;5052514;28;19929;-67
2023/07/28 08:49:44;;;;;;;;;;;;;;;;;;5051274;28;20345;-67
2023/07/28 08:52:10;;;;;;;;;;;;;;;;;;5053522;28;19921;-67
2023/07/28 08:54:36;;;;;;;;;;;;;;;;;;5036662;28;19986;-67
2023/07/28 08:57:02;;;;;;;;;;;;;;;;;;5050436;28;20318;-66
2023/07/28 08:59:28;;;;;;;;;;;;;;;;;;5052295;28;19925;-67
2023/07/28 09:01:55;;;;;;;;;;;;;;;;;;5048011;28;19947;-67
2023/07/28 09:04:21;;;;;;;;;;;;;;;;;;5030308;28;19932;-67
2023/07/28 09:06:46;;;;;;;;;;;;;;;;;;5053996;28;19921;-67
2023/07/28 09:09:12;;;;;;;;;;;;;;;;;;5050749;28;20558;-67
2023/07/28 09:11:38;;;;;;;;;;;;;;;;;;5046048;28;19974;-67
2023/07/28 09:14:04;;;;;;;;;;;;;;;;;;5050695;28;19925;-67
2023/07/28 09:16:32;;;;;;;;;;;;;;;;;;5052389;28;20517;-67
2023/07/28 09:18:58;;;;;;;;;;;;;;;;;;5049746;28;19960;-67
2023/07/28 09:21:24;;;;;;;;;;;;;;;;;;5053255;28;19963;-67
2023/07/28 09:23:50;;;;;;;;;;;;;;;;;;5051371;28;19929;-67
2023/07/28 09:26:16;;;;;;;;;;;;;;;;;;5051788;28;19952;-67
2023/07/28 09:28:42;;;;;;;;;;;;;;;;;;5052807;28;20313;-67
2023/07/28 09:31:08;;;;;;;;;;;;;;;;;;5051215;28;19921;-67
2023/07/28 09:33:34;;;;;;;;;;;;;;;;;;5049293;28;19967;-67
2023/07/28 09:35:59;;;;;;;;;;;;;;;;;;5051927;28;19925;-67
2023/07/28 09:38:25;;;;;;;;;;;;;;;;;;5050352;28;19964;-67
2023/07/28 09:40:51;;;;;;;;;;;;;;;;;;5053247;28;19947;-67
2023/07/28 09:43:17;;;;;;;;;;;;;;;;;;5048240;28;20001;-67
2023/07/28 09:45:43;;;;;;;;;;;;;;;;;;5049273;28;19929;-67
2023/07/28 09:48:09;;;;;;;;;;;;;;;;;;5050428;28;19921;-67
2023/07/28 09:50:35;;;;;;;;;;;;;;;;;;5048778;28;19921;-68
2023/07/28 09:53:01;;;;;;;;;;;;;;;;;;5047786;28;19929;-67
2023/07/28 09:55:27;;;;;;;;;;;;;;;;;;5052534;28;19925;-67
2023/07/28 09:57:53;;;;;;;;;;;;;;;;;;5033701;28;19928;-66
2023/07/28 10:00:19;;;;;;;;;;;;;;;;;;5047976;28;19975;-68
2023/07/28 10:02:45;;;;;;;;;;;;;;;;;;5047608;28;20423;-68
2023/07/28 10:05:10;;;;;;;;;;;;;;;;;;5031197;28;20472;-68
2023/07/28 10:07:37;;;;;;;;;;;;;;;;;;5040758;28;20310;-67
2023/07/28 10:10:03;;;;;;;;;;;;;;;;;;5048468;28;19928;-67
2023/07/28 10:12:29;;;;;;;;;;;;;;;;;;5039856;28;19925;-68
2023/07/28 10:14:54;;;;;;;;;;;;;;;;;;5047130;28;19920;-67
2023/07/28 10:17:20;;;;;;;;;;;;;;;;;;5050520;28;19920;-68
2023/07/28 10:19:46;;;;;;;;;;;;;;;;;;5052751;28;19928;-67
2023/07/28 10:22:12;;;;;;;;;;;;;;;;;;5051225;28;19925;-67
2023/07/28 10:24:38;;;;;;;;;;;;;;;;;;5049901;28;20074;-67
2023/07/28 10:27:04;;;;;;;;;;;;;;;;;;5052656;28;19970;-67
2023/07/28 10:29:30;;;;;;;;;;;;;;;;;;5045815;28;19925;-67
2023/07/28 10:31:57;;;;;;;;;;;;;;;;;;5026369;28;19924;-68
2023/07/28 10:34:23;;;;;;;;;;;;;;;;;;5031257;28;19975;-67
2023/07/28 10:36:49;;;;;;;;;;;;;;;;;;5048635;28;19932;-67
2023/07/28 10:39:16;;;;;;;;;;;;;;;;;;5046865;28;19929;-67
2023/07/28 10:41:43;;;;;;;;;;;;;;;;;;5033027;28;20712;-67
2023/07/28 10:44:09;;;;;;;;;;;;;;;;;;5049723;28;20482;-67
2023/07/28 10:46:36;;;;;;;;;;;;;;;;;;5048974;28;19924;-67
2023/07/28 10:49:02;;;;;;;;;;;;;;;;;;5040809;28;19963;-67
2023/07/28 10:51:32;;;;;;;;;;;;;;;;;;5050286;28;19968;-67
2023/07/28 10:53:58;;;;;;;;;;;;;;;;;;5029030;28;20493;-67
2023/07/28 10:56:24;;;;;;;;;;;;;;;;;;5048881;28;19920;-67
2023/07/28 10:58:50;;;;;;;;;;;;;;;;;;5046840;28;19967;-67
2023/07/28 11:01:16;;;;;;;;;;;;;;;;;;5050134;28;19976;-67
2023/07/28 11:03:44;;;;;;;;;;;;;;;;;;5044760;28;20269;-67
2023/07/28 11:06:10;;;;;;;;;;;;;;;;;;5031384;28;19925;-67
2023/07/28 11:08:36;;;;;;;;;;;;;;;;;;5037326;28;20337;-67
2023/07/28 11:11:02;;;;;;;;;;;;;;;;;;5048051;28;19952;-67
2023/07/28 11:13:28;;;;;;;;;;;;;;;;;;5039785;28;19964;-68
2023/07/28 11:15:53;;;;;;;;;;;;;;;;;;5045818;28;20044;-67
2023/07/28 11:18:21;;;;;;;;;;;;;;;;;;5032168;28;19936;-67
2023/07/28 11:20:47;;;;;;;;;;;;;;;;;;5051722;28;19925;-67
2023/07/28 11:23:13;;;;;;;;;;;;;;;;;;5051611;28;19924;-67
2023/07/28 11:25:39;;;;;;;;;;;;;;;;;;5050458;28;20016;-68
2023/07/28 11:28:05;;;;;;;;;;;;;;;;;;5051477;28;19925;-67
2023/07/28 11:30:31;;;;;;;;;;;;;;;;;;5045573;28;19920;-67
2023/07/28 11:32:57;;;;;;;;;;;;;;;;;;5021290;28;20413;-67
2023/07/28 11:35:23;;;;;;;;;;;;;;;;;;5046978;28;19924;-67
2023/07/28 11:37:50;;;;;;;;;;;;;;;;;;5030701;28;19933;-67
2023/07/28 11:40:16;;;;;;;;;;;;;;;;;;5050581;28;20016;-67
2023/07/28 11:42:42;;;;;;;;;;;;;;;;;;5051714;28;20036;-68
2023/07/28 11:45:08;;;;;;;;;;;;;;;;;;5048973;28;20343;-67
2023/07/28 11:47:33;;;;;;;;;;;;;;;;;;5049437;28;19921;-67
2023/07/28 11:50:00;;;;;;;;;;;;;;;;;;5030531;28;19975;-67
2023/07/28 11:52:26;;;;;;;;;;;;;;;;;;5032421;28;19963;-67
2023/07/28 11:54:53;;;;;;;;;;;;;;;;;;5047184;28;19964;-67
2023/07/28 11:57:18;;;;;;;;;;;;;;;;;;5049527;28;19924;-67
2023/07/28 11:59:44;;;;;;;;;;;;;;;;;;5024376;28;22781;-67
2023/07/28 12:02:10;;;;;;;;;;;;;;;;;;5038925;28;19925;-67
2023/07/28 12:04:36;;;;;;;;;;;;;;;;;;5048503;28;19921;-67
2023/07/28 12:07:03;;;;;;;;;;;;;;;;;;5050470;28;20282;-67
2023/07/28 12:09:29;;;;;;;;;;;;;;;;;;5050947;28;20534;-67
2023/07/28 12:11:55;;;;;;;;;;;;;;;;;;5051079;28;19978;-67
2023/07/28 12:14:21;;;;;;;;;;;;;;;;;;5049078;28;19995;-67
2023/07/28 12:16:47;;;;;;;;;;;;;;;;;;5050641;28;19966;-67
2023/07/28 12:19:14;;;;;;;;;;;;;;;;;;5024120;28;20000;-67
2023/07/28 12:21:39;;;;;;;;;;;;;;;;;;5050091;28;19936;-67
2023/07/28 12:24:05;;;;;;;;;;;;;;;;;;5029955;28;20302;-67
2023/07/28 12:26:31;;;;;;;;;;;;;;;;;;5045423;28;19933;-67
2023/07/28 12:28:57;;;;;;;;;;;;;;;;;;5049844;28;20035;-67
2023/07/28 12:31:23;;;;;;;;;;;;;;;;;;5039331;28;20508;-67
2023/07/28 12:33:49;;;;;;;;;;;;;;;;;;5038572;28;19935;-67
2023/07/28 12:36:16;;;;;;;;;;;;;;;;;;5034833;28;19966;-67
2023/07/28 12:38:42;;;;;;;;;;;;;;;;;;5035783;28;19929;-67
2023/07/28 12:41:08;;;;;;;;;;;;;;;;;;5035696;28;19921;-67
2023/07/28 12:43:34;;;;;;;;;;;;;;;;;;5027911;28;19933;-67
2023/07/28 12:46:00;;;;;;;;;;;;;;;;;;5031052;28;19978;-66
2023/07/28 12:48:26;;;;;;;;;;;;;;;;;;5044461;28;20015;-67
2023/07/28 12:50:52;;;;;;;;;;;;;;;;;;5054354;28;19921;-67
2023/07/28 12:53:18;;;;;;;;;;;;;;;;;;5053949;28;20002;-66
2023/07/28 12:55:44;;;;;;;;;;;;;;;;;;5054263;28;20047;-66
2023/07/28 12:58:10;;;;;;;;;;;;;;;;;;5053991;28;19964;-66
2023/07/28 13:00:36;;;;;;;;;;;;;;;;;;5054078;28;19928;-66
2023/07/28 13:03:02;;;;;;;;;;;;;;;;;;5015991;28;20321;-67
2023/07/28 13:05:28;;;;;;;;;;;;;;;;;;5053503;28;19920;-67
2023/07/28 13:07:54;;;;;;;;;;;;;;;;;;5053951;28;19921;-67
2023/07/28 13:10:19;;;;;;;;;;;;;;;;;;5036000;28;19929;-67
2023/07/28 13:12:45;;;;;;;;;;;;;;;;;;5053967;28;20432;-67
2023/07/28 13:15:11;;;;;;;;;;;;;;;;;;5052005;28;19924;-67
2023/07/28 13:17:37;;;;;;;;;;;;;;;;;;5052942;28;20345;-67
2023/07/28 13:20:03;;;;;;;;;;;;;;;;;;5051730;28;19921;-66
2023/07/28 13:22:29;;;;;;;;;;;;;;;;;;5044055;28;20467;-67
2023/07/28 13:24:55;;;;;;;;;;;;;;;;;;5050363;28;20008;-67
2023/07/28 13:27:21;;;;;;;;;;;;;;;;;;5051484;28;19921;-66
2023/07/28 13:29:47;;;;;;;;;;;;;;;;;;5036348;28;19971;-67
2023/07/28 13:32:13;;;;;;;;;;;;;;;;;;5051494;28;19924;-67
2023/07/28 13:34:38;;;;;;;;;;;;;;;;;;5051493;28;19947;-67
2023/07/28 13:37:05;;;;;;;;;;;;;;;;;;5032811;28;20353;-67
2023/07/28 13:39:30;;;;;;;;;;;;;;;;;;5050737;28;19924;-66
2023/07/28 13:41:56;;;;;;;;;;;;;;;;;;5035898;28;20015;-67
2023/07/28 13:44:22;;;;;;;;;;;;;;;;;;5053511;28;20424;-67
2023/07/28 13:46:48;;;;;;;;;;;;;;;;;;5051080;28;20386;-67
2023/07/28 13:49:14;;;;;;;;;;;;;;;;;;5041121;28;19951;-67
2023/07/28 13:51:40;;;;;;;;;;;;;;;;;;5051008;28;19931;-67
2023/07/28 13:54:06;;;;;;;;;;;;;;;;;;5047788;28;19920;-67
2023/07/28 13:56:32;;;;;;;;;;;;;;;;;;5048147;28;19973;-67
2023/07/28 13:58:58;;;;;;;;;;;;;;;;;;5050917;28;20007;-67
2023/07/28 14:01:24;;;;;;;;;;;;;;;;;;5044193;28;19928;-67
2023/07/28 14:03:50;;;;;;;;;;;;;;;;;;5046379;28;19985;-67
2023/07/28 14:06:16;;;;;;;;;;;;;;;;;;5031876;28;19921;-67
2023/07/28 14:08:42;;;;;;;;;;;;;;;;;;5050555;28;19928;-67
2023/07/28 14:11:07;;;;;;;;;;;;;;;;;;5050613;28;19924;-67
2023/07/28 14:13:33;;;;;;;;;;;;;;;;;;5049128;28;19921;-67
2023/07/28 14:15:59;;;;;;;;;;;;;;;;;;5045925;28;20030;-67
2023/07/28 14:18:25;;;;;;;;;;;;;;;;;;5050419;28;19921;-67
2023/07/28 14:20:51;;;;;;;;;;;;;;;;;;5052053;28;20382;-66
2023/07/28 14:23:17;;;;;;;;;;;;;;;;;;5051354;28;19972;-67
2023/07/28 14:25:43;;;;;;;;;;;;;;;;;;5043506;28;20276;-67
2023/07/28 14:28:09;;;;;;;;;;;;;;;;;;5040212;28;19929;-67
2023/07/28 14:30:34;;;;;;;;;;;;;;;;;;5012047;28;19990;-67
2023/07/28 14:33:01;;;;;;;;;;;;;;;;;;5026953;28;19925;-67
2023/07/28 14:35:27;;;;;;;;;;;;;;;;;;5029834;28;20389;-67
2023/07/28 14:37:52;;;;;;;;;;;;;;;;;;5043727;28;19929;-68
2023/07/28 14:40:18;;;;;;;;;;;;;;;;;;5042362;28;19925;-67
2023/07/28 14:42:44;;;;;;;;;;;;;;;;;;5050298;28;19924;-67
2023/07/28 14:45:10;;;;;;;;;;;;;;;;;;5048312;28;20008;-67
2023/07/28 14:47:36;;;;;;;;;;;;;;;;;;5039043;28;20377;-66
2023/07/28 14:50:02;;;;;;;;;;;;;;;;;;5043656;28;19932;-67
2023/07/28 14:52:28;;;;;;;;;;;;;;;;;;5050607;28;19956;-67
2023/07/28 14:54:54;;;;;;;;;;;;;;;;;;5050166;28;19957;-67
2023/07/28 14:57:20;;;;;;;;;;;;;;;;;;5047764;28;19928;-67
2023/07/28 14:59:46;;;;;;;;;;;;;;;;;;5049541;28;19925;-67
2023/07/28 15:02:13;;;;;;;;;;;;;;;;;;5045090;28;19928;-67
2023/07/28 15:04:39;;;;;;;;;;;;;;;;;;5048559;28;20021;-67
2023/07/28 15:07:05;;;;;;;;;;;;;;;;;;5027354;28;19966;-67
2023/07/28 15:09:31;;;;;;;;;;;;;;;;;;5046302;28;19920;-67
2023/07/28 15:11:57;;;;;;;;;;;;;;;;;;5027463;28;20344;-67
2023/07/28 15:14:22;;;;;;;;;;;;;;;;;;5043487;28;19925;-67
2023/07/28 15:16:48;;;;;;;;;;;;;;;;;;5041684;28;19944;-67
2023/07/28 15:19:14;;;;;;;;;;;;;;;;;;5038307;28;19947;-67
2023/07/28 15:21:40;;;;;;;;;;;;;;;;;;5042692;28;20259;-67
2023/07/28 15:24:06;;;;;;;;;;;;;;;;;;5046849;28;19933;-67
2023/07/28 15:26:35;;;;;;;;;;;;;;;;;;5030323;28;20390;-67
2023/07/28 15:29:01;;;;;;;;;;;;;;;;;;5041380;28;20485;-67
2023/07/28 15:31:27;;;;;;;;;;;;;;;;;;5047272;28;19925;-67
2023/07/28 15:33:53;;;;;;;;;;;;;;;;;;5045834;28;20410;-67
2023/07/28 15:36:19;;;;;;;;;;;;;;;;;;5045944;28;19925;-67
2023/07/28 15:38:45;;;;;;;;;;;;;;;;;;5028354;28;20016;-67
2023/07/28 15:41:11;;;;;;;;;;;;;;;;;;5041186;28;19986;-67
2023/07/28 15:43:37;;;;;;;;;;;;;;;;;;5048021;28;19936;-67
2023/07/28 15:46:04;;;;;;;;;;;;;;;;;;5004355;28;20030;-66
2023/07/28 15:48:31;;;;;;;;;;;;;;;;;;5049086;28;20374;-67
2023/07/28 15:50:57;;;;;;;;;;;;;;;;;;5044104;28;19979;-67
2023/07/28 15:53:23;;;;;;;;;;;;;;;;;;5018230;23;20634;-64
2023/07/28 15:55:48;;;;;;;;;;;;;;;;;;5007009;28;19933;-64
2023/07/28 15:58:14;;;;;;;;;;;;;;;;;;5011236;28;20346;-65
2023/07/28 16:00:40;;;;;;;;;;;;;;;;;;5009653;28;19922;-65
2023/07/28 16:03:06;;;;;;;;;;;;;;;;;;5004888;28;19929;-64
2023/07/28 16:05:34;;;;;;;;;;;;;;;;;;5007795;28;19931;-65
2023/07/28 16:08:00;;;;;;;;;;;;;;;;;;5001026;28;19991;-64
2023/07/28 16:10:26;;;;;;;;;;;;;;;;;;5000765;28;19922;-64
2023/07/28 16:12:52;;;;;;;;;;;;;;;;;;5009716;28;20314;-64
2023/07/28 16:15:18;;;;;;;;;;;;;;;;;;5013416;28;19921;-64
2023/07/28 16:17:44;;;;;;;;;;;;;;;;;;5013132;28;19926;-64
2023/07/28 16:20:09;;;;;;;;;;;;;;;;;;5006892;28;20475;-64
2023/07/28 16:22:35;;;;;;;;;;;;;;;;;;5015012;28;19925;-65
2023/07/28 16:25:01;;;;;;;;;;;;;;;;;;5013273;28;20036;-65
2023/07/28 16:27:27;;;;;;;;;;;;;;;;;;5011714;28;20429;-64
2023/07/28 16:29:53;;;;;;;;;;;;;;;;;;5013474;28;19947;-64
2023/07/28 16:32:19;;;;;;;;;;;;;;;;;;5014385;28;19947;-64
2023/07/28 16:34:45;;;;;;;;;;;;;;;;;;4993869;28;19928;-64
2023/07/28 16:37:11;;;;;;;;;;;;;;;;;;4999996;28;19925;-65